sensor_id;sensor_type;location;lat;lon;timestamp;pressure;altitude;pressure_sealevel;temperature;humidity
48942;BME280;35340;52.378;4.648;2023-01-29T00:10:04;103039.78;;;16.22;58.31
48942;BME280;35340;52.378;4.648;2023-01-29T00:12:54;103034.53;;;16.21;57.92
48942;BME280;35340;52.378;4.648;2023-01-29T01:09:16;103017.34;;;16.24;56.37
48942;BME280;35340;52.378;4.648;2023-01-29T03:54:47;102935.03;;;16.54;54.18
48942;BME280;35340;52.378;4.648;2023-01-29T03:57:46;102942.03;;;16.56;54.11
48942;BME280;35340;52.378;4.648;2023-01-29T04:00:48;102926.44;;;16.56;53.75
48942;BME280;35340;52.378;4.648;2023-01-29T05:01:28;102877.13;;;16.59;53.59
48942;BME280;35340;52.378;4.648;2023-01-29T05:13:59;102879.81;;;16.62;53.44
48942;BME280;35340;52.378;4.648;2023-01-29T05:16:41;102867.66;;;16.61;53.56
48942;BME280;35340;52.378;4.648;2023-01-29T05:19:15;102863.34;;;16.62;53.21
48942;BME280;35340;52.378;4.648;2023-01-29T05:25:40;102852.97;;;16.63;53.17
48942;BME280;35340;52.378;4.648;2023-01-29T05:43:47;102849.59;;;16.66;52.72
48942;BME280;35340;52.378;4.648;2023-01-29T07:00:41;102792.06;;;16.87;51.62
48942;BME280;35340;52.378;4.648;2023-01-29T07:03:27;102794.75;;;16.90;51.64
48942;BME280;35340;52.378;4.648;2023-01-29T07:06:05;102799.91;;;16.89;51.59
48942;BME280;35340;52.378;4.648;2023-01-29T07:30:18;102794.75;;;16.90;52.08
48942;BME280;35340;52.378;4.648;2023-01-29T07:53:53;102771.47;;;16.95;52.55
48942;BME280;35340;52.378;4.648;2023-01-29T07:56:19;102768.00;;;16.94;52.64
48942;BME280;35340;52.378;4.648;2023-01-29T07:58:44;102760.19;;;16.94;52.41
48942;BME280;35340;52.378;4.648;2023-01-29T08:01:09;102751.47;;;16.94;52.42
48942;BME280;35340;52.378;4.648;2023-01-29T08:03:35;102747.25;;;16.97;52.25
48942;BME280;35340;52.378;4.648;2023-01-29T08:06:04;102749.84;;;16.97;52.27
48942;BME280;35340;52.378;4.648;2023-01-29T08:08:30;102743.78;;;16.97;52.52
48942;BME280;35340;52.378;4.648;2023-01-29T08:11:00;102755.03;;;16.97;52.35
48942;BME280;35340;52.378;4.648;2023-01-29T08:13:28;102755.03;;;16.97;52.34
48942;BME280;35340;52.378;4.648;2023-01-29T08:15:59;102753.31;;;16.98;52.18
48942;BME280;35340;52.378;4.648;2023-01-29T08:18:28;102752.50;;;16.99;52.12
48942;BME280;35340;52.378;4.648;2023-01-29T08:21:00;102753.38;;;16.99;51.92
48942;BME280;35340;52.378;4.648;2023-01-29T08:23:25;102755.09;;;17.00;51.86
48942;BME280;35340;52.378;4.648;2023-01-29T08:25:56;102749.00;;;16.98;51.85
48942;BME280;35340;52.378;4.648;2023-01-29T08:28:22;102753.38;;;16.99;51.96
48942;BME280;35340;52.378;4.648;2023-01-29T08:30:47;102738.59;;;16.98;51.79
48942;BME280;35340;52.378;4.648;2023-01-29T08:33:33;102740.34;;;16.99;51.87
48942;BME280;35340;52.378;4.648;2023-01-29T08:57:21;102739.44;;;16.97;51.36
48942;BME280;35340;52.378;4.648;2023-01-29T09:13:50;102727.41;;;17.02;51.43
48942;BME280;35340;52.378;4.648;2023-01-29T12:26:57;102505.78;;;17.19;52.72
48942;BME280;35340;52.378;4.648;2023-01-29T12:35:20;102490.22;;;17.22;52.78
48942;BME280;35340;52.378;4.648;2023-01-29T12:37:55;102489.25;;;17.15;53.24
48942;BME280;35340;52.378;4.648;2023-01-29T12:40:27;102478.78;;;17.12;53.24
48942;BME280;35340;52.378;4.648;2023-01-29T12:42:58;102472.66;;;17.09;53.48
48942;BME280;35340;52.378;4.648;2023-01-29T12:45:27;102464.81;;;17.07;53.16
48942;BME280;35340;52.378;4.648;2023-01-29T12:48:10;102458.72;;;17.05;53.47
48942;BME280;35340;52.378;4.648;2023-01-29T12:50:38;102450.91;;;17.05;53.66
48942;BME280;35340;52.378;4.648;2023-01-29T12:56:17;102430.06;;;17.03;53.99
48942;BME280;35340;52.378;4.648;2023-01-29T12:58:50;102416.16;;;17.01;54.04
48942;BME280;35340;52.378;4.648;2023-01-29T13:01:30;102415.31;;;17.02;54.45
48942;BME280;35340;52.378;4.648;2023-01-29T13:04:40;102413.59;;;17.03;54.38
48942;BME280;35340;52.378;4.648;2023-01-29T13:07:11;102402.38;;;17.05;54.27
48942;BME280;35340;52.378;4.648;2023-01-29T13:09:44;102402.63;;;17.21;55.27
48942;BME280;35340;52.378;4.648;2023-01-29T13:12:16;102392.16;;;17.16;54.87
48942;BME280;35340;52.378;4.648;2023-01-29T13:14:50;102390.41;;;17.17;55.08
48942;BME280;35340;52.378;4.648;2023-01-29T13:17:32;102387.81;;;17.17;55.79
48942;BME280;35340;52.378;4.648;2023-01-29T13:20:28;102379.16;;;17.18;55.61
48942;BME280;35340;52.378;4.648;2023-01-29T13:22:59;102371.34;;;17.18;56.46
48942;BME280;35340;52.378;4.648;2023-01-29T13:25:28;102364.44;;;17.18;55.74
48942;BME280;35340;52.378;4.648;2023-01-29T13:27:54;102363.56;;;17.19;56.13
48942;BME280;35340;52.378;4.648;2023-01-29T13:30:30;102371.41;;;17.21;55.98
48942;BME280;35340;52.378;4.648;2023-01-29T13:32:59;102362.75;;;17.20;55.92
48942;BME280;35340;52.378;4.648;2023-01-29T13:35:36;102357.53;;;17.20;56.17
48942;BME280;35340;52.378;4.648;2023-01-29T13:38:02;102365.34;;;17.22;56.51
48942;BME280;35340;52.378;4.648;2023-01-29T13:40:31;102353.25;;;17.22;56.33
48942;BME280;35340;52.378;4.648;2023-01-29T13:42:59;102347.16;;;17.23;56.34
48942;BME280;35340;52.378;4.648;2023-01-29T13:45:42;102347.19;;;17.25;56.57
48942;BME280;35340;52.378;4.648;2023-01-29T13:48:29;102341.06;;;17.21;56.55
48942;BME280;35340;52.378;4.648;2023-01-29T13:51:08;102342.88;;;17.25;57.10
48942;BME280;35340;52.378;4.648;2023-01-29T13:53:40;102341.09;;;17.24;56.70
48942;BME280;35340;52.378;4.648;2023-01-29T13:58:57;102331.59;;;17.26;56.96
48942;BME280;35340;52.378;4.648;2023-01-29T14:01:59;102325.53;;;17.26;56.71
48942;BME280;35340;52.378;4.648;2023-01-29T14:04:29;102309.03;;;17.25;57.08
48942;BME280;35340;52.378;4.648;2023-01-29T14:06:59;102304.75;;;17.27;57.53
48942;BME280;35340;52.378;4.648;2023-01-29T14:17:17;102296.97;;;17.31;57.32
48942;BME280;35340;52.378;4.648;2023-01-29T14:19:56;102293.53;;;17.32;57.39
48942;BME280;35340;52.378;4.648;2023-01-29T14:22:25;102295.28;;;17.31;57.67
48942;BME280;35340;52.378;4.648;2023-01-29T14:25:04;102303.06;;;17.31;57.25
48942;BME280;35340;52.378;4.648;2023-01-29T14:27:37;102297.88;;;17.31;57.63
48942;BME280;35340;52.378;4.648;2023-01-29T14:30:07;102289.16;;;17.31;57.53
48942;BME280;35340;52.378;4.648;2023-01-29T14:32:38;102284.78;;;17.28;57.73
48942;BME280;35340;52.378;4.648;2023-01-29T14:35:17;102287.44;;;17.30;57.61
48942;BME280;35340;52.378;4.648;2023-01-29T14:37:46;102280.50;;;17.30;57.61
48942;BME280;35340;52.378;4.648;2023-01-29T14:40:21;102278.75;;;17.29;57.57
48942;BME280;35340;52.378;4.648;2023-01-29T14:45:47;102277.00;;;17.28;57.49
48942;BME280;35340;52.378;4.648;2023-01-29T14:51:44;102272.66;;;17.27;57.52
48942;BME280;35340;52.378;4.648;2023-01-29T14:54:28;102270.06;;;17.28;57.96
48942;BME280;35340;52.378;4.648;2023-01-29T14:57:04;102274.44;;;17.30;57.98
48942;BME280;35340;52.378;4.648;2023-01-29T15:00:01;102270.06;;;17.28;57.37
48942;BME280;35340;52.378;4.648;2023-01-29T15:02:41;102270.94;;;17.29;57.91
48942;BME280;35340;52.378;4.648;2023-01-29T15:05:15;102264.00;;;17.30;58.15
48942;BME280;35340;52.378;4.648;2023-01-29T15:07:55;102262.28;;;17.30;57.89
48942;BME280;35340;52.378;4.648;2023-01-29T15:10:32;102270.09;;;17.30;57.62
48942;BME280;35340;52.378;4.648;2023-01-29T15:13:14;102265.75;;;17.31;57.78
48942;BME280;35340;52.378;4.648;2023-01-29T15:15:47;102253.59;;;17.30;57.67
48942;BME280;35340;52.378;4.648;2023-01-29T15:18:19;102251.88;;;17.30;57.78
48942;BME280;35340;52.378;4.648;2023-01-29T15:20:47;102257.94;;;17.31;57.53
48942;BME280;35340;52.378;4.648;2023-01-29T15:23:32;102251.88;;;17.30;57.70
48942;BME280;35340;52.378;4.648;2023-01-29T15:26:03;102251.88;;;17.30;57.46
48942;BME280;35340;52.378;4.648;2023-01-29T15:28:29;102257.06;;;17.30;57.93
48942;BME280;35340;52.378;4.648;2023-01-29T15:30:59;102251.88;;;17.30;57.80
48942;BME280;35340;52.378;4.648;2023-01-29T15:33:26;102258.84;;;17.31;57.67
48942;BME280;35340;52.378;4.648;2023-01-29T15:35:57;102260.53;;;17.31;57.62
48942;BME280;35340;52.378;4.648;2023-01-29T15:38:24;102257.09;;;17.32;57.79
48942;BME280;35340;52.378;4.648;2023-01-29T15:40:58;102259.69;;;17.30;57.69
48942;BME280;35340;52.378;4.648;2023-01-29T15:43:42;102253.63;;;17.31;57.70
48942;BME280;35340;52.378;4.648;2023-01-29T15:46:24;102248.44;;;17.31;57.63
48942;BME280;35340;52.378;4.648;2023-01-29T15:48:52;102239.72;;;17.31;57.75
48942;BME280;35340;52.378;4.648;2023-01-29T15:51:20;102246.69;;;17.32;57.46
48942;BME280;35340;52.378;4.648;2023-01-29T15:53:52;102238.91;;;17.32;57.38
48942;BME280;35340;52.378;4.648;2023-01-29T15:56:24;102237.16;;;17.32;57.57
48942;BME280;35340;52.378;4.648;2023-01-29T15:58:52;102235.41;;;17.33;57.54
48942;BME280;35340;52.378;4.648;2023-01-29T16:01:19;102234.56;;;17.32;57.55
48942;BME280;35340;52.378;4.648;2023-01-29T16:03:48;102227.63;;;17.33;57.40
48942;BME280;35340;52.378;4.648;2023-01-29T16:06:14;102230.22;;;17.33;57.57
48942;BME280;35340;52.378;4.648;2023-01-29T16:08:41;102222.41;;;17.33;57.38
48942;BME280;35340;52.378;4.648;2023-01-29T16:11:10;102218.94;;;17.32;57.14
48942;BME280;35340;52.378;4.648;2023-01-29T16:13:39;102225.03;;;17.33;57.56
48942;BME280;35340;52.378;4.648;2023-01-29T16:16:26;102220.69;;;17.33;57.41
48942;BME280;35340;52.378;4.648;2023-01-29T16:18:53;102215.47;;;17.33;57.64
48942;BME280;35340;52.378;4.648;2023-01-29T16:21:41;102202.47;;;17.33;57.54
48942;BME280;35340;52.378;4.648;2023-01-29T16:24:10;102208.56;;;17.34;57.53
48942;BME280;35340;52.378;4.648;2023-01-29T16:26:42;102215.50;;;17.35;57.42
48942;BME280;35340;52.378;4.648;2023-01-29T16:29:12;102209.44;;;17.34;57.15
48942;BME280;35340;52.378;4.648;2023-01-29T16:31:38;102216.38;;;17.34;57.71
48942;BME280;35340;52.378;4.648;2023-01-29T16:34:29;102215.50;;;17.35;57.34
48942;BME280;35340;52.378;4.648;2023-01-29T16:37:05;102213.78;;;17.35;57.44
48942;BME280;35340;52.378;4.648;2023-01-29T17:21:01;102157.41;;;17.37;57.18
48942;BME280;35340;52.378;4.648;2023-01-29T18:07:37;102116.56;;;17.28;57.57
48942;BME280;35340;52.378;4.648;2023-01-29T18:10:23;102113.09;;;17.28;57.54
48942;BME280;35340;52.378;4.648;2023-01-29T18:19:24;102074.06;;;17.28;57.50
48942;BME280;35340;52.378;4.648;2023-01-29T18:32:31;102036.75;;;17.26;57.84
48942;BME280;35340;52.378;4.648;2023-01-29T18:35:18;102027.22;;;17.26;57.93
48942;BME280;35340;52.378;4.648;2023-01-29T18:37:55;102028.06;;;17.25;57.86
48942;BME280;35340;52.378;4.648;2023-01-29T19:27:35;102024.59;;;17.25;59.02
48942;BME280;35340;52.378;4.648;2023-01-29T19:30:00;102028.94;;;17.26;59.14
48942;BME280;35340;52.378;4.648;2023-01-29T19:32:27;102028.06;;;17.25;58.86
48942;BME280;35340;52.378;4.648;2023-01-29T19:34:54;102025.47;;;17.22;59.09
48942;BME280;35340;52.378;4.648;2023-01-29T19:37:31;102029.81;;;17.25;59.30
48942;BME280;35340;52.378;4.648;2023-01-29T19:40:16;102017.66;;;17.25;59.59
48942;BME280;35340;52.378;4.648;2023-01-29T19:42:46;102013.31;;;17.24;59.40
48942;BME280;35340;52.378;4.648;2023-01-29T19:45:19;102006.41;;;17.25;59.85
48942;BME280;35340;52.378;4.648;2023-01-29T19:47:50;102009.00;;;17.26;59.45
48942;BME280;35340;52.378;4.648;2023-01-29T19:50:16;102004.66;;;17.25;59.45
48942;BME280;35340;52.378;4.648;2023-01-29T19:52:47;102014.22;;;17.28;59.98
48942;BME280;35340;52.378;4.648;2023-01-29T22:20:21;101842.31;;;17.02;59.79
48942;BME280;35340;52.378;4.648;2023-01-29T22:23:11;101829.25;;;16.94;59.83
48942;BME280;35340;52.378;4.648;2023-01-29T22:26:05;101817.06;;;16.90;59.89
48942;BME280;35340;52.378;4.648;2023-01-29T22:28:30;101814.47;;;16.89;59.65
48942;BME280;35340;52.378;4.648;2023-01-29T22:31:05;101791.06;;;16.89;59.72
48942;BME280;35340;52.378;4.648;2023-01-29T22:33:38;101806.63;;;16.87;59.95
48942;BME280;35340;52.378;4.648;2023-01-29T22:36:21;101804.03;;;16.85;59.56
48942;BME280;35340;52.378;4.648;2023-01-29T23:08:31;101807.38;;;16.78;59.70
48942;BME280;35340;52.378;4.648;2023-01-29T23:11:09;101796.09;;;16.76;59.84
48942;BME280;35340;52.378;4.648;2023-01-29T23:17:18;101764.91;;;16.76;59.37
48942;BME280;35340;52.378;4.648;2023-01-29T23:20:10;101764.06;;;16.76;59.38
48942;BME280;35340;52.378;4.648;2023-01-29T23:26:13;101751.06;;;16.76;59.52
48942;BME280;35340;52.378;4.648;2023-01-29T23:29:00;101768.41;;;16.77;59.11
48942;BME280;35340;52.378;4.648;2023-01-29T23:32:03;101752.81;;;16.77;59.47
48942;BME280;35340;52.378;4.648;2023-01-29T23:51:59;101750.16;;;16.72;59.01
48942;BME280;35340;52.378;4.648;2023-01-29T23:57:09;101736.28;;;16.72;59.10
